Date,TemperatureHighF,TemperatureAvgF,TemperatureLowF,DewpointHighF,DewpointAvgF,DewpointLowF,HumidityHigh,HumidityAvg,HumidityLow,PressureMaxIn,PressureMinIn,WindSpeedMaxMPH,WindSpeedAvgMPH,GustSpeedMaxMPH,PrecipitationSumIn
2013-7-1,99,85,67,-100,-100,-100,0,0,100,0.00,40.00,0,-999,0,0.00
2013-7-2,97,86,69,-100,-100,-100,0,0,100,0.00,40.00,0,-999,0,0.00
2013-7-3,98,82,65,-100,-100,-100,0,0,100,0.00,40.00,0,-999,0,0.00
2013-7-4,99,82,69,-100,-100,-100,0,0,100,0.00,40.00,0,-999,0,0.00
2013-7-5,94,84,70,-100,-100,-100,0,0,100,0.00,40.00,0,-999,0,0.00
2013-7-6,93,79,70,-100,-100,-100,0,0,100,0.00,40.00,0,-999,0,0.00
2013-7-7,94,80,66,-100,-100,-100,0,0,100,0.00,40.00,0,-999,0,0.00
2013-7-8,95,76,63,-100,-100,-100,0,0,100,0.00,40.00,0,-999,0,0.00
2013-7-9,98,85,68,-100,-100,-100,0,0,100,0.00,40.00,0,-999,0,0.00
2013-7-10,99,85,71,-100,-100,-100,0,0,100,0.00,40.00,0,-999,0,0.00
2013-7-11,98,79,65,-100,-100,-100,0,0,100,0.00,40.00,0,-999,0,0.00
2013-7-12,94,74,65,-100,-100,-100,0,0,100,0.00,40.00,0,-999,0,0.00
2013-7-13,98,78,65,-100,-100,-100,0,0,100,0.00,40.00,0,-999,0,0.00
2013-7-14,99,82,69,-100,-100,-100,0,0,100,0.00,40.00,0,-999,0,0.00
2013-7-15,99,81,68,-100,-100,-100,0,0,100,0.00,40.00,0,-999,0,0.00
2013-7-16,93,79,67,-100,-100,-100,0,0,100,0.00,40.00,0,-999,0,0.00
2013-7-17,89,78,63,-100,-100,-100,0,0,100,0.00,40.00,0,-999,0,0.00
2013-7-18,93,77,63,-100,-100,-100,0,0,100,0.00,40.00,0,-999,0,0.00
2013-7-19,96,76,64,-100,-100,-100,0,0,100,0.00,40.00,0,-999,0,0.00
2013-7-20,99,82,69,-100,-100,-100,0,0,100,0.00,40.00,0,-999,0,0.00
2013-7-21,100,84,66,-100,-100,-100,0,0,100,0.00,40.00,0,-999,0,0.00
2013-7-22,101,86,71,-100,-100,-100,0,0,100,0.00,40.00,0,-999,0,0.00
2013-7-23,101,84,67,-100,-100,-100,0,0,100,0.00,40.00,0,-999,0,0.00
2013-7-24,92,81,72,-100,-100,-100,0,0,100,0.00,40.00,0,-999,0,0.00
2013-7-25,98,80,64,-100,-100,-100,0,0,100,0.00,40.00,0,-999,0,0.00
2013-7-26,101,84,70,-100,-100,-100,0,0,100,0.00,40.00,0,-999,0,0.00
2013-7-27,88,78,65,-100,-100,-100,0,0,100,0.00,40.00,0,-999,0,0.00
2013-7-28,86,70,62,-100,-100,-100,0,0,100,0.00,40.00,0,-999,0,0.00
2013-7-29,86,69,59,-100,-100,-100,0,0,100,0.00,40.00,0,-999,0,0.00
2013-7-30,93,76,59,-100,-100,-100,0,0,100,0.00,40.00,0,-999,0,0.00
2013-7-31,97,80,67,-100,-100,-100,0,0,100,0.00,40.00,0,-999,0,0.00